• Join FlightAware (Why Join?)
  • Login
  • US Flag 
05:47PM EST


 

Airport Tracker/Info


-or-


 

Live Flight TrackerFlight Track Log ✈ 9M-MNB ✈ 14-Apr-2013 ✈ WMKK / KUL - EGLL / LHR

Flight Track Log - Related Links

Times and Time Zones

All times are in EDT time to prevent confusion due to time zone crossing. See the 9M-MNB flight status page for this flight to view local times or setup timezone preferences in your user account.

Time Position Orientation Groundspeed Altitude Reporting Facility
EDT Latitude Longitude Course Direction KTS MPH feet Rate Location/Type
12:04PM 2.8060 101.6820 326° Northwest 189 217 1,100  Level FlightAware
12:04PM 2.8150 101.6760 326° Northwest 193 222 1,300 300 Climbing FlightAware
12:05PM 2.8320 101.6660 330° Northwest 193 222 1,300 1,320 Level FlightAware
12:05PM 2.8590 101.6510 331° Northwest 193 222 2,400 2,100 Climbing FlightAware
12:05PM 2.8690 101.6440 325° Northwest 214 246 2,700 1,020 Climbing FlightAware
12:06PM 2.8940 101.6230 320° Northwest 246 283 3,200 1,080 Climbing FlightAware
12:06PM 2.9250 101.5950 318° Northwest 277 319 3,700 1,200 Climbing FlightAware
12:06PM 2.9320 101.5890 319° Northwest 277 319 3,800 1,080 Climbing FlightAware
12:07PM 2.9860 101.5400 318° Northwest 334 384 4,700 1,080 Climbing FlightAware
12:08PM 3.0280 101.5050 320° Northwest 357 411 5,400 1,260 Climbing FlightAware
12:08PM 3.0530 101.4850 321° Northwest 367 422 5,900 1,920 Climbing FlightAware
12:08PM 3.0810 101.4610 319° Northwest 367 422 6,700 2,160 Climbing FlightAware
12:09PM 3.1200 101.4270 319° Northwest 372 428 7,700 1,920 Climbing FlightAware
12:09PM 3.1660 101.3870 319° Northwest 378 435 8,800 1,980 Climbing FlightAware
12:10PM 3.2200 101.3410 320° Northwest 380 437 10,200 1,800 Climbing FlightAware
12:11PM 3.3040 101.2920 330° Northwest 397 457 11,700 1,500 Climbing FlightAware
12:11PM 3.3570 101.2750 342° North 405 466 12,400 1,500 Climbing FlightAware
12:12PM 3.4280 101.2510 341° North 406 467 13,500 1,320 Climbing FlightAware
12:13PM 3.5080 101.2080 332° Northwest 418 481 14,400 1,260 Climbing FlightAware
12:14PM 3.5820 101.1690 332° Northwest 422 486 15,500 1,500 Climbing FlightAware
12:14PM 3.6300 101.1430 332° Northwest 424 488 16,200 660 Climbing FlightAware
12:15PM 3.6860 101.1130 332° Northwest 424 488 16,200 780 Level FlightAware
12:15PM 3.7660 101.0700 332° Northwest 433 498 17,300 660 Climbing FlightAware
12:16PM 3.8410 101.0300 332° Northwest 433 498 17,300  Level FlightAware
12:17PM 3.8860 101.0060 332° Northwest 433 498 17,300  Level FlightAware
12:17PM 3.9460 100.9740 332° Northwest 433 498 17,300  Level FlightAware
12:18PM 4.0060 100.9420 332° Northwest 433 498 17,300 3,060 Level FlightAware
12:19PM 4.1230 100.8800 332° Northwest 471 542 20,900 3,900 Climbing FlightAware
12:19PM 4.2000 100.8380 331° Northwest 467 537 21,900 1,440 Climbing FlightAware
12:20PM 4.2800 100.7960 332° Northwest 461 531 23,000 1,500 Climbing FlightAware
12:21PM 4.3500 100.7580 332° Northwest 455 524 23,900 1,380 Climbing FlightAware
12:21PM 4.4000 100.7290 330° Northwest 454 522 24,500 1,080 Climbing FlightAware
12:22PM 4.4600 100.6920 328° Northwest 454 522 25,000 900 Climbing FlightAware
12:22PM 4.5340 100.6480 329° Northwest 456 525 25,600 960 Climbing FlightAware
12:23PM 4.5950 100.6120 330° Northwest 456 525 26,200 1,020 Climbing FlightAware
12:23PM 4.6610 100.5730 330° Northwest 458 527 26,800 960 Climbing FlightAware
12:24PM 4.7160 100.5410 330° Northwest 458 527 27,300 1,020 Climbing FlightAware
12:25PM 4.7890 100.4970 329° Northwest 459 528 28,000 1,020 Climbing FlightAware
12:25PM 4.8410 100.4660 329° Northwest 458 527 28,500 960 Climbing FlightAware
12:26PM 4.9080 100.4270 330° Northwest 456 525 29,100 960 Climbing FlightAware
12:26PM 4.9810 100.3840 330° Northwest 454 522 29,700 960 Climbing FlightAware
12:27PM 5.0450 100.3460 329° Northwest 450 518 30,300 960 Climbing FlightAware
12:28PM 5.1240 100.2980 329° Northwest 445 512 31,000 600 Climbing FlightAware
12:28PM 5.1890 100.2650 333° Northwest 452 520 31,100 60 Climbing FlightAware
12:29PM 5.2570 100.2360 337° Northwest 463 533 31,100 60 Level FlightAware
12:29PM 5.3280 100.2040 336° Northwest 470 541 31,200 240 Climbing FlightAware
12:30PM 5.3880 100.1770 336° Northwest 475 547 31,400 300 Climbing FlightAware
12:31PM 5.4680 100.1420 336° Northwest 482 555 31,600 360 Climbing FlightAware
12:31PM 5.5490 100.1060 336° Northwest 487 560 31,900 420 Climbing FlightAware
12:32PM 5.6350 100.0680 336° Northwest 490 564 32,200 480 Climbing FlightAware
12:33PM 5.7060 100.0360 336° Northwest 493 567 32,500 540 Climbing FlightAware
12:33PM 5.7920 99.9980 336° Northwest 496 571 32,900 480 Climbing FlightAware
12:34PM 5.8880 99.9560 336° Northwest 497 572 33,200 420 Climbing FlightAware
12:35PM 5.9800 99.9140 336° Northwest 499 574 33,600 540 Climbing FlightAware
12:35PM 6.0660 99.8760 336° Northwest 499 574 34,000 240 Climbing FlightAware
12:36PM 6.1610 99.8340 336° Northwest 503 579 34,000  Level FlightAware
12:37PM 6.2140 99.8100 336° Northwest 503 579 34,000  Level FlightAware
12:37PM 6.3110 99.7660 336° Northwest 506 582 34,000  Level FlightAware
12:38PM 6.3770 99.7270 330° Northwest 506 582 34,000  Level FlightAware
12:39PM 6.4910 99.6360 322° Northwest 506 582 34,000  Level FlightAware
12:40PM 6.5510 99.5850 320° Northwest 506 582 34,000  Level FlightAware
12:40PM 6.5970 99.5460 320° Northwest 506 582 34,000  Level FlightAware
12:41PM 6.6430 99.5080 321° Northwest 506 582 34,000  Level FlightAware
12:41PM 6.7550 99.4460 331° Northwest 503 579 34,000  Level FlightAware
12:42PM 6.8640 99.4120 343° North 503 579 34,000  Level FlightAware
12:43PM 6.9210 99.3940 343° North 503 579 34,000  Level FlightAware
12:43PM 6.9970 99.3710 343° North 503 579 34,000  Level FlightAware
12:44PM 7.0730 99.3480 343° North 503 579 34,000  Level FlightAware
12:45PM 7.1480 99.3240 342° North 503 579 34,000  Level FlightAware
12:45PM 7.2240 99.3010 343° North 503 579 34,000  Level FlightAware
12:46PM 7.3180 99.2720 343° North 503 579 34,000  Level FlightAware
12:47PM 7.3750 99.2540 343° North 503 579 34,000  Level FlightAware
12:47PM 7.4320 99.2370 344° North 503 579 34,000  Level FlightAware
12:48PM 7.5260 99.2080 343° North 503 579 34,000  Level FlightAware
12:49PM 7.6020 99.1840 343° North 503 579 34,000  Level FlightAware
12:49PM 7.6780 99.1610 343° North 503 579 34,000  Level FlightAware
12:50PM 7.7530 99.1380 343° North 503 579 34,000  Level FlightAware
12:50PM 7.8710 98.9030 297° West 496 571 34,000  Level FlightAware
12:51PM 7.9350 98.8330 313° West 498 573 34,000  Level FlightAware
12:52PM 7.9800 98.7840 313° West 499 574 34,000  Level FlightAware
12:52PM 8.0520 98.7040 312° West 500 575 34,000  Level FlightAware
12:53PM 8.1030 98.6480 313° West 500 575 34,000  Level FlightAware
12:54PM 8.1710 98.5740 313° West 501 577 34,000  Level FlightAware
12:54PM 8.2270 98.5120 312° West 502 578 34,000  Level FlightAware
12:55PM 8.2960 98.4360 313° West 501 577 34,000  Level FlightAware
12:56PM 8.3680 98.3570 313° West 501 577 34,000  Level FlightAware
12:56PM 8.4090 98.3120 313° West 502 578 34,000  Level FlightAware
12:58PM 8.5440 98.1650 313° West 503 579 34,000  Level FlightAware
12:58PM 8.6100 98.0990 315° West 506 582 34,000  Level FlightAware
12:59PM 8.7030 98.0500 332° Northwest 511 588 34,000  Level FlightAware
01:00PM 8.7760 98.0230 340° North 511 588 34,000  Level FlightAware
01:00PM 8.8520 97.9950 340° North 511 588 34,000  Level FlightAware
01:01PM 8.9080 97.9740 340° North 511 588 34,000  Level FlightAware
01:01PM 8.9650 97.9530 340° North 511 588 34,000  Level FlightAware
01:02PM 8.9830 97.8180 278° West 34,000  Level FlightAware
01:04PM 9.1641 97.6743 322° Northwest  Level Estimated
01:05PM 9.2610 97.5973 322° Northwest  Level Estimated
01:06PM 9.3580 97.5202 322° Northwest  Level Estimated
01:07PM 9.4549 97.4431 322° Northwest  Level Estimated
01:08PM 9.5518 97.3659 322° Northwest  Level Estimated
01:09PM 9.6487 97.2887 322° Northwest  Level Estimated
01:10PM 9.7456 97.2115 322° Northwest  Level Estimated
01:11PM 9.8425 97.1342 322° Northwest  Level Estimated
01:12PM 9.9393 97.0568 322° Northwest  Level Estimated
01:13PM 10.0361 96.9794 322° Northwest  Level Estimated
01:14PM 10.1330 96.9020 322° Northwest  Level Estimated
01:15PM 10.2297 96.8245 322° Northwest  Level Estimated
01:16PM 10.3265 96.7470 322° Northwest  Level Estimated
01:17PM 10.4233 96.6694 322° Northwest  Level Estimated
01:18PM 10.5200 96.5918 322° Northwest  Level Estimated
01:19PM 10.6167 96.5141 322° Northwest  Level Estimated
01:20PM 10.7135 96.4364 322° Northwest  Level Estimated
01:21PM 10.8101 96.3587 322° Northwest  Level Estimated
01:22PM 10.9068 96.2808 322° Northwest  Level Estimated
01:23PM 11.0034 96.2030 322° Northwest  Level Estimated
01:24PM 11.1000 96.1250 322° Northwest  Level Estimated
01:25PM 11.1966 96.0471 322° Northwest  Level Estimated
01:26PM 11.2932 95.9690 322° Northwest  Level Estimated
01:27PM 11.3898 95.8910 322° Northwest  Level Estimated
01:28PM 11.4863 95.8128 322° Northwest  Level Estimated
01:29PM 11.5829 95.7346 322° Northwest  Level Estimated
01:30PM 11.6793 95.6564 322° Northwest  Level Estimated
01:31PM 11.7758 95.5781 322° Northwest  Level Estimated
01:32PM 11.8723 95.4998 322° Northwest  Level Estimated
01:33PM 11.9687 95.4214 322° Northwest  Level Estimated
01:34PM 12.0651 95.3429 321° Northwest  Level Estimated
01:35PM 12.1615 95.2644 321° Northwest  Level Estimated
01:36PM 12.2579 95.1858 321° Northwest  Level Estimated
01:37PM 12.3542 95.1072 321° Northwest  Level Estimated
01:38PM 12.4506 95.0285 321° Northwest  Level Estimated
01:39PM 12.5469 94.9497 321° Northwest  Level Estimated
01:40PM 12.6432 94.8709 321° Northwest  Level Estimated
01:41PM 12.7394 94.7921 321° Northwest  Level Estimated
01:42PM 12.8356 94.7131 321° Northwest  Level Estimated
01:43PM 12.9319 94.6341 321° Northwest  Level Estimated
01:44PM 13.0280 94.5551 321° Northwest  Level Estimated
01:45PM 13.1242 94.4760 321° Northwest  Level Estimated
01:46PM 13.2203 94.3968 321° Northwest  Level Estimated
01:47PM 13.3165 94.3176 321° Northwest  Level Estimated
01:48PM 13.4125 94.2383 321° Northwest  Level Estimated
01:49PM 13.5086 94.1589 321° Northwest  Level Estimated
01:50PM 13.6046 94.0795 321° Northwest  Level Estimated
01:51PM 13.7007 94.0000 321° Northwest  Level Estimated
01:52PM 13.7966 93.9205 321° Northwest  Level Estimated
01:53PM 13.8926 93.8408 321° Northwest  Level Estimated
01:54PM 13.9885 93.7612 321° Northwest  Level Estimated
01:55PM 14.0844 93.6814 321° Northwest  Level Estimated
01:56PM 14.1803 93.6016 321° Northwest  Level Estimated
01:57PM 14.2762 93.5217 321° Northwest  Level Estimated
01:58PM 14.3720 93.4418 321° Northwest  Level Estimated
01:59PM 14.4678 93.3617 321° Northwest  Level Estimated
02:00PM 14.5636 93.2816 321° Northwest  Level Estimated
02:01PM 14.6594 93.2015 321° Northwest  Level Estimated
02:02PM 14.7551 93.1213 321° Northwest  Level Estimated
02:03PM 14.8508 93.0410 321° Northwest  Level Estimated
02:04PM 14.9464 92.9606 321° Northwest  Level Estimated
02:05PM 15.0421 92.8801 321° Northwest  Level Estimated
02:06PM 15.1377 92.7996 321° Northwest  Level Estimated
02:07PM 15.2333 92.7190 321° Northwest  Level Estimated
02:08PM 15.3288 92.6384 321° Northwest  Level Estimated
02:09PM 15.4243 92.5576 321° Northwest  Level Estimated
02:10PM 15.5198 92.4768 321° Northwest  Level Estimated
02:11PM 15.6153 92.3960 321° Northwest  Level Estimated
02:12PM 15.7107 92.3150 321° Northwest  Level Estimated
02:13PM 15.8061 92.2339 321° Northwest  Level Estimated
02:14PM 15.9015 92.1528 321° Northwest  Level Estimated
02:15PM 15.9969 92.0716 321° Northwest  Level Estimated
02:16PM 16.0922 91.9904 321° Northwest  Level Estimated
02:17PM 16.1875 91.9090 321° Northwest  Level Estimated
02:18PM 16.2827 91.8276 321° Northwest  Level Estimated
02:19PM 16.3779 91.7461 321° Northwest  Level Estimated
02:20PM 16.4731 91.6645 321° Northwest  Level Estimated
02:21PM 16.5683 91.5829 321° Northwest  Level Estimated
02:22PM 16.6634 91.5011 321° Northwest  Level Estimated
02:23PM 16.7585 91.4193 321° Northwest  Level Estimated
02:24PM 16.8536 91.3374 320° Northwest  Level Estimated
02:25PM 16.9486 91.2554 320° Northwest  Level Estimated
02:26PM 17.0436 91.1733 320° Northwest  Level Estimated
02:27PM 17.1386 91.0912 320° Northwest  Level Estimated
02:28PM 17.2335 91.0090 320° Northwest  Level Estimated
02:29PM 17.3284 90.9266 320° Northwest  Level Estimated
02:30PM 17.4233 90.8442 320° Northwest  Level Estimated
02:31PM 17.5181 90.7617 320° Northwest  Level Estimated
02:32PM 17.6129 90.6792 320° Northwest  Level Estimated
02:33PM 17.7076 90.5965 320° Northwest  Level Estimated
02:34PM 17.8024 90.5137 320° Northwest  Level Estimated
02:35PM 17.8971 90.4309 320° Northwest  Level Estimated
02:36PM 17.9917 90.3480 320° Northwest  Level Estimated
02:37PM 18.0863 90.2650 320° Northwest  Level Estimated
02:38PM 18.1809 90.1818 320° Northwest  Level Estimated
02:39PM 18.2755 90.0986 320° Northwest  Level Estimated
02:40PM 18.3700 90.0154 320° Northwest  Level Estimated
02:41PM 18.4645 89.9320 320° Northwest  Level Estimated
02:42PM 18.5589 89.8485 320° Northwest  Level Estimated
02:43PM 18.6533 89.7649 320° Northwest  Level Estimated
02:44PM 18.7477 89.6813 320° Northwest  Level Estimated
02:45PM 18.8420 89.5975 320° Northwest  Level Estimated
02:46PM 18.9363 89.5137 320° Northwest  Level Estimated
02:47PM 19.0306 89.4297 320° Northwest  Level Estimated
02:48PM 19.1248 89.3457 320° Northwest  Level Estimated
02:49PM 19.2190 89.2616 320° Northwest  Level Estimated
02:50PM 19.3131 89.1773 320° Northwest  Level Estimated
02:51PM 19.4072 89.0930 320° Northwest  Level Estimated
02:52PM 19.5013 89.0086 320° Northwest  Level Estimated
02:53PM 19.5953 88.9241 320° Northwest  Level Estimated
02:54PM 19.6893 88.8394 320° Northwest  Level Estimated
02:55PM 19.7832 88.7547 320° Northwest  Level Estimated
02:56PM 19.8771 88.6699 320° Northwest  Level Estimated
02:57PM 19.9710 88.5850 320° Northwest  Level Estimated
02:58PM 20.0648 88.5000 320° Northwest  Level Estimated
02:59PM 20.1586 88.4148 320° Northwest  Level Estimated
03:00PM 20.2524 88.3296 320° Northwest  Level Estimated
03:01PM 20.3461 88.2443 320° Northwest  Level Estimated
03:02PM 20.4397 88.1589 319° Northwest  Level Estimated
03:03PM 20.5333 88.0733 319° Northwest  Level Estimated
03:04PM 20.6269 87.9877 319° Northwest  Level Estimated
03:05PM 20.7204 87.9019 319° Northwest  Level Estimated
03:06PM 20.8139 87.8161 319° Northwest  Level Estimated
03:07PM 20.9074 87.7301 319° Northwest  Level Estimated
03:08PM 21.0008 87.6440 319° Northwest  Level Estimated
03:09PM 21.0942 87.5579 319° Northwest  Level Estimated
03:10PM 21.1875 87.4716 319° Northwest  Level Estimated
03:11PM 21.2808 87.3852 319° Northwest  Level Estimated
03:12PM 21.3740 87.2987 319° Northwest  Level Estimated
03:13PM 21.4672 87.2121 319° Northwest  Level Estimated
03:14PM 21.5603 87.1254 319° Northwest  Level Estimated
03:15PM 21.6534 87.0385 319° Northwest  Level Estimated
03:16PM 21.7465 86.9516 319° Northwest  Level Estimated
03:17PM 21.8395 86.8645 319° Northwest  Level Estimated
03:18PM 21.9324 86.7774 319° Northwest  Level Estimated
03:19PM 22.0254 86.6901 319° Northwest  Level Estimated
03:20PM 22.1182 86.6027 319° Northwest  Level Estimated
03:21PM 22.2111 86.5152 319° Northwest  Level Estimated
03:22PM 22.3038 86.4275 319° Northwest  Level Estimated
03:23PM 22.3966 86.3398 319° Northwest  Level Estimated
03:24PM 22.4892 86.2519 319° Northwest  Level Estimated
03:25PM 22.5819 86.1639 319° Northwest  Level Estimated
03:26PM 22.6745 86.0758 319° Northwest  Level Estimated
03:27PM 22.7670 85.9876 319° Northwest  Level Estimated
03:28PM 22.8595 85.8993 319° Northwest  Level Estimated
03:29PM 22.9519 85.8108 319° Northwest  Level Estimated
03:30PM 23.0443 85.7222 319° Northwest  Level Estimated
03:31PM 23.1367 85.6335 319° Northwest  Level Estimated
03:32PM 23.2290 85.5447 319° Northwest  Level Estimated
03:33PM 23.3212 85.4558 318° Northwest  Level Estimated
03:34PM 23.4134 85.3667 318° Northwest  Level Estimated
03:35PM 23.5055 85.2775 318° Northwest  Level Estimated
03:36PM 23.5976 85.1882 318° Northwest  Level Estimated
03:37PM 23.6896 85.0987 318° Northwest  Level Estimated
03:38PM 23.7816 85.0091 318° Northwest  Level Estimated
03:39PM 23.8736 84.9194 318° Northwest  Level Estimated
03:40PM 23.9655 84.8296 318° Northwest  Level Estimated
03:41PM 24.0573 84.7397 318° Northwest  Level Estimated
03:42PM 24.1491 84.6496 318° Northwest  Level Estimated
03:43PM 24.2408 84.5594 318° Northwest  Level Estimated
03:44PM 24.3325 84.4690 318° Northwest  Level Estimated
03:45PM 24.4241 84.3786 318° Northwest  Level Estimated
03:46PM 24.5156 84.2880 318° Northwest  Level Estimated
03:47PM 24.6072 84.1972 318° Northwest  Level Estimated
03:48PM 24.6986 84.1064 318° Northwest  Level Estimated
03:49PM 24.7900 84.0154 318° Northwest  Level Estimated
03:50PM 24.8814 83.9242 318° Northwest  Level Estimated
03:51PM 24.9727 83.8329 318° Northwest  Level Estimated
03:52PM 25.0639 83.7415 318° Northwest  Level Estimated
03:53PM 25.1551 83.6500 318° Northwest  Level Estimated
03:54PM 25.2462 83.5583 318° Northwest  Level Estimated
03:55PM 25.3373 83.4665 318° Northwest  Level Estimated
03:56PM 25.4283 83.3745 318° Northwest  Level Estimated
03:57PM 25.5192 83.2824 318° Northwest  Level Estimated
03:58PM 25.6101 83.1902 318° Northwest  Level Estimated
03:59PM 25.7010 83.0978 318° Northwest  Level Estimated
04:00PM 25.7917 83.0053 317° Northwest  Level Estimated
04:01PM 25.8825 82.9127 317° Northwest  Level Estimated
04:02PM 25.9731 82.8198 317° Northwest  Level Estimated
04:03PM 26.0637 82.7269 317° Northwest  Level Estimated
04:04PM 26.1542 82.6338 317° Northwest  Level Estimated
04:05PM 26.2447 82.5406 317° Northwest  Level Estimated
04:06PM 26.3351 82.4472 317° Northwest  Level Estimated
04:07PM 26.4255 82.3537 317° Northwest  Level Estimated
04:08PM 26.5158 82.2600 317° Northwest  Level Estimated
04:09PM 26.6061 82.1662 317° Northwest  Level Estimated
04:10PM 26.6962 82.0722 317° Northwest  Level Estimated
04:11PM 26.7863 81.9781 317° Northwest  Level Estimated
04:12PM 26.8764 81.8839 317° Northwest  Level Estimated
04:13PM 26.9664 81.7895 317° Northwest  Level Estimated
04:14PM 27.0563 81.6949 317° Northwest  Level Estimated
04:15PM 27.1462 81.6002 317° Northwest  Level Estimated
04:15PM 25.7100 78.0940 317° Northwest 425 489 34,000  Level FlightAware
04:15PM 25.7520 78.0110 299° West 426 490 34,000  Level FlightAware
04:16PM 25.8010 77.9100 298° West 426 490 34,000  Level FlightAware
04:17PM 25.8490 77.8140 299° West 427 491 34,000  Level FlightAware
04:18PM 25.8810 77.7480 298° West 427 491 34,000  Level FlightAware
04:18PM 25.9050 77.6980 298° West 427 491 34,000  Level FlightAware
04:19PM 25.9360 77.6320 298° West 427 491 34,000  Level FlightAware
04:20PM 25.9910 77.5250 300° West 427 491 34,000  Level FlightAware
04:20PM 26.0320 77.4400 298° West 427 491 34,000  Level FlightAware
04:21PM 26.0700 77.3640 299° West 428 493 34,000  Level FlightAware
04:22PM 26.1110 77.2800 299° West 428 493 34,000  Level FlightAware
04:22PM 26.1500 77.2000 299° West 428 493 34,000  Level FlightAware
04:23PM 26.1820 77.1330 298° West 427 491 34,000  Level FlightAware
04:24PM 26.2310 77.0300 298° West 428 493 34,000  Level FlightAware
04:25PM 26.2630 76.9640 298° West 428 493 34,000  Level FlightAware
04:25PM 26.3020 76.8840 299° West 427 491 34,000  Level FlightAware
04:26PM 26.3340 76.8180 298° West 425 489 34,000  Level FlightAware
04:27PM 26.3770 76.7280 298° West 424 488 34,000  Level FlightAware
04:27PM 26.4190 76.6400 298° West 422 486 34,000  Level FlightAware
04:28PM 26.4640 76.5460 298° West 420 483 34,000  Level FlightAware
04:29PM 26.5140 76.4430 298° West 422 486 34,000  Level FlightAware
04:30PM 26.5470 76.3780 300° West 422 486 34,000  Level FlightAware
04:30PM 26.5790 76.3130 299° West 422 486 34,000  Level FlightAware
04:31PM 26.6110 76.2480 299° West 422 486 34,000  Level FlightAware
04:32PM 26.6430 76.1830 299° West 422 486 34,000  Level FlightAware
04:32PM 26.6670 76.1350 299° West 422 486 34,000  Level FlightAware
04:33PM 26.7520 75.9840 302° West 421 484 34,000  Level FlightAware
04:34PM 26.7920 75.9050 300° West 420 483 34,000  Level FlightAware
04:34PM 26.8240 75.8400 299° West 420 483 34,000  Level FlightAware
04:35PM 26.8560 75.7750 299° West 420 483 34,000  Level FlightAware
04:36PM 26.9060 75.6660 297° West 421 484 34,000  Level FlightAware
04:37PM 26.9490 75.5710 297° West 420 483 34,000  Level FlightAware
04:37PM 26.9890 75.4850 298° West 420 483 34,000  Level FlightAware
04:38PM 27.0250 75.4070 297° West 420 483 34,000  Level FlightAware
04:39PM 27.0520 75.3470 297° West 421 484 34,000  Level FlightAware
04:40PM 27.0900 75.2640 297° West 421 484 34,000  Level FlightAware
04:40PM 27.1130 75.2150 298° West 421 484 34,000  Level FlightAware
04:41PM 27.1430 75.1480 297° West 421 484 34,000  Level FlightAware
04:41PM 27.1730 75.0820 297° West 421 484 34,000  Level FlightAware
04:42PM 27.2100 74.9990 297° West 421 484 34,000  Level FlightAware
04:45PM 27.4122 74.7788 316° Northwest  Level Estimated
04:45PM 27.4050 74.5720 316° Northwest 423 487 34,000  Level FlightAware
04:46PM 27.4430 74.4890 297° West 423 487 34,000  Level FlightAware
04:47PM 27.4790 74.4100 297° West 421 484 34,000  Level FlightAware
04:47PM 27.5090 74.3400 296° West 420 483 34,000  Level FlightAware
04:48PM 27.5380 74.2730 296° West 420 483 34,000  Level FlightAware
04:49PM 27.5670 74.2060 296° West 420 483 34,000  Level FlightAware
04:49PM 27.5960 74.1390 296° West 420 483 34,000  Level FlightAware
04:50PM 27.6320 74.0550 296° West 420 483 34,000  Level FlightAware
04:51PM 27.6610 73.9880 296° West 420 483 34,000  Level FlightAware
04:51PM 27.6900 73.9210 296° West 420 483 34,000  Level FlightAware
04:52PM 27.7190 73.8540 296° West 420 483 34,000  Level FlightAware
04:53PM 27.7480 73.7870 296° West 420 483 34,000  Level FlightAware
04:54PM 27.7840 73.7030 296° West 420 483 34,000  Level FlightAware
04:54PM 27.8130 73.6360 296° West 420 483 34,000  Level FlightAware
04:55PM 27.8420 73.5680 296° West 420 483 34,000  Level FlightAware
04:56PM 27.8710 73.5010 296° West 420 483 34,000  Level FlightAware
04:56PM 27.9000 73.4340 296° West 420 483 34,000  Level FlightAware
04:57PM 28.0490 73.1620 302° West 423 487 34,000  Level FlightAware
04:58PM 28.0810 73.0910 297° West 424 488 34,000  Level FlightAware
04:58PM 28.1110 73.0240 297° West 424 488 34,000  Level FlightAware
04:59PM 28.1420 72.9570 298° West 424 488 34,000  Level FlightAware
05:00PM 28.1720 72.8890 297° West 424 488 34,000  Level FlightAware
05:01PM 28.2100 72.8050 297° West 424 488 34,000  Level FlightAware
05:01PM 28.2400 72.7370 297° West 424 488 34,000  Level FlightAware
05:02PM 28.2700 72.6700 297° West 424 488 34,000  Level FlightAware
05:03PM 28.3000 72.6030 297° West 424 488 34,000  Level FlightAware
05:03PM 28.3310 72.5350 297° West 424 488 34,000  Level FlightAware
05:04PM 28.3690 72.4510 297° West 424 488 34,000  Level FlightAware
05:05PM 28.4790 72.2430 301° West 426 490 34,000  Level FlightAware
05:06PM 28.5160 72.1790 303° West 426 490 34,000  Level FlightAware
05:06PM 28.5620 72.0990 303° West 426 490 34,000  Level FlightAware
05:07PM 28.5980 72.0350 303° West 426 490 34,000  Level FlightAware
05:08PM 28.6350 71.9710 303° West 426 490 34,000  Level FlightAware
05:08PM 28.6710 71.9070 303° West 426 490 34,000  Level FlightAware
05:09PM 28.7080 71.8430 303° West 426 490 34,000  Level FlightAware
05:10PM 28.7530 71.7620 302° West 426 490 34,000  Level FlightAware
05:11PM 28.7900 71.6980 303° West 426 490 34,000  Level FlightAware
05:11PM 28.8260 71.6340 303° West 426 490 34,000  Level FlightAware
05:12PM 28.8630 71.5700 303° West 426 490 34,000  Level FlightAware
05:13PM 28.8990 71.5060 303° West 426 490 34,000  Level FlightAware
05:13PM 28.9450 71.4260 303° West 426 490 34,000  Level FlightAware
05:14PM 28.9810 71.3610 302° West 426 490 34,000  Level FlightAware
05:17PM 29.1868 71.1245 315° West  Level Estimated
05:18PM 29.2736 71.0243 315° West  Level Estimated
05:19PM 29.3603 70.9239 315° West  Level Estimated
05:20PM 29.4470 70.8233 315° West  Level Estimated
05:21PM 29.5336 70.7226 315° West  Level Estimated
05:22PM 29.6201 70.6217 315° West  Level Estimated
05:23PM 29.7065 70.5206 315° West  Level Estimated
05:24PM 29.7929 70.4194 315° West  Level Estimated
05:25PM 29.8791 70.3179 314° West  Level Estimated
05:26PM 29.9653 70.2163 314° West  Level Estimated
05:27PM 30.0515 70.1146 314° West  Level Estimated
05:28PM 30.1375 70.0126 314° West  Level Estimated
05:29PM 30.2235 69.9105 314° West  Level Estimated
05:30PM 30.3094 69.8082 314° West  Level Estimated
05:31PM 30.3952 69.7057 314° West  Level Estimated
05:32PM 30.4809 69.6030 314° West  Level Estimated
05:33PM 30.5665 69.5002 314° West  Level Estimated
05:34PM 30.6521 69.3971 314° West  Level Estimated
05:35PM 30.7376 69.2939 314° West  Level Estimated
05:36PM 30.8230 69.1905 314° West  Level Estimated
05:37PM 30.9083 69.0870 314° West  Level Estimated
05:38PM 30.9936 68.9832 314° West  Level Estimated
05:39PM 31.0787 68.8792 314° West  Level Estimated
05:40PM 31.1638 68.7751 314° West  Level Estimated
05:41PM 31.2488 68.6708 314° West  Level Estimated
05:42PM 31.3337 68.5663 314° West  Level Estimated
05:43PM 31.4185 68.4616 314° West  Level Estimated
05:44PM 31.5032 68.3567 313° West  Level Estimated
05:45PM 31.5879 68.2516 313° West  Level Estimated
05:46PM 31.6724 68.1463 313° West  Level Estimated
05:47PM 31.7569 68.0409 313° West  Level Estimated
05:48PM 31.8413 67.9352 313° West  Level Estimated
05:49PM 31.9256 67.8294 313° West  Level Estimated
05:50PM 32.0098 67.7233 313° West  Level Estimated
05:51PM 32.0939 67.6171 313° West  Level Estimated
05:52PM 32.1780 67.5106 313° West  Level Estimated
05:53PM 32.2619 67.4040 313° West  Level Estimated
05:54PM 32.3458 67.2972 313° West  Level Estimated
05:55PM 32.4295 67.1901 313° West  Level Estimated
05:56PM 32.5132 67.0829 313° West  Level Estimated
05:57PM 32.5968 66.9755 313° West  Level Estimated
05:58PM 32.6803 66.8679 313° West  Level Estimated
05:59PM 32.7637 66.7600 313° West  Level Estimated
06:00PM 32.8470 66.6520 313° West  Level Estimated
06:01PM 32.9302 66.5438 313° West  Level Estimated
06:02PM 33.0133 66.4353 312° West  Level Estimated
06:03PM 33.0963 66.3267 312° West  Level Estimated
06:04PM 33.1793 66.2178 312° West  Level Estimated
06:05PM 33.2621 66.1088 312° West  Level Estimated
06:06PM 33.3448 65.9995 312° West  Level Estimated
06:07PM 33.4275 65.8901 312° West  Level Estimated
06:08PM 33.5101 65.7804 312° West  Level Estimated
06:09PM 33.5925 65.6705 312° West  Level Estimated
06:10PM 33.6749 65.5604 312° West  Level Estimated
06:11PM 33.7571 65.4501 312° West  Level Estimated
06:12PM 33.8393 65.3396 312° West  Level Estimated
06:13PM 33.9213 65.2289 312° West  Level Estimated
06:14PM 34.0033 65.1179 312° West  Level Estimated
06:15PM 34.0852 65.0068 312° West  Level Estimated
06:16PM 34.1669 64.8954 312° West  Level Estimated
06:17PM 34.2486 64.7838 312° West  Level Estimated
06:18PM 34.3301 64.6720 311° West  Level Estimated
06:19PM 34.4116 64.5600 311° West  Level Estimated
06:20PM 34.4930 64.4477 311° West  Level Estimated
06:21PM 34.5742 64.3353 311° West  Level Estimated
06:22PM 34.6554 64.2226 311° West  Level Estimated
06:23PM 34.7364 64.1097 311° West  Level Estimated
06:24PM 34.8173 63.9966 311° West  Level Estimated
06:25PM 34.8982 63.8832 311° West  Level Estimated
06:26PM 34.9789 63.7697 311° West  Level Estimated
06:27PM 35.0595 63.6559 311° West  Level Estimated
06:28PM 35.1401 63.5419 311° West  Level Estimated
06:29PM 35.2205 63.4276 311° West  Level Estimated
06:30PM 35.3008 63.3131 311° West  Level Estimated
06:31PM 35.3810 63.1984 311° West  Level Estimated
06:32PM 35.4611 63.0835 311° West  Level Estimated
06:33PM 35.5410 62.9684 311° West  Level Estimated
06:34PM 35.6209 62.8530 310° West  Level Estimated
06:35PM 35.7007 62.7374 310° West  Level Estimated
06:36PM 35.7803 62.6216 310° West  Level Estimated
06:37PM 35.8599 62.5055 310° West  Level Estimated
06:38PM 35.9393 62.3892 310° West  Level Estimated
06:39PM 36.0186 62.2726 310° West  Level Estimated
06:40PM 36.0978 62.1558 310° West  Level Estimated
06:41PM 36.1769 62.0388 310° West  Level Estimated
06:42PM 36.2559 61.9216 310° West  Level Estimated
06:43PM 36.3347 61.8041 310° West  Level Estimated
06:44PM 36.4134 61.6864 310° West  Level Estimated
06:45PM 36.4921 61.5684 310° West  Level Estimated
06:46PM 36.5706 61.4502 310° West  Level Estimated
06:47PM 36.6490 61.3318 310° West  Level Estimated
06:48PM 36.7272 61.2131 309° West  Level Estimated
06:49PM 36.8054 61.0942 309° West  Level Estimated
06:50PM 36.8834 60.9750 309° West  Level Estimated
06:51PM 36.9614 60.8556 309° West  Level Estimated
06:52PM 37.0392 60.7359 309° West  Level Estimated
06:53PM 37.1169 60.6160 309° West  Level Estimated
06:54PM 37.1944 60.4959 309° West  Level Estimated
06:55PM 37.2719 60.3755 309° West  Level Estimated
06:56PM 37.3492 60.2548 309° West  Level Estimated
06:57PM 37.4263 60.1339 309° West  Level Estimated
06:58PM 37.5034 60.0128 309° West  Level Estimated
06:59PM 37.5804 59.8914 309° West  Level Estimated
07:00PM 37.6572 59.7698 309° West  Level Estimated
07:01PM 37.7339 59.6479 309° West  Level Estimated
07:02PM 37.8104 59.5257 308° West  Level Estimated
07:03PM 37.8869 59.4033 308° West  Level Estimated
07:04PM 37.9632 59.2807 308° West  Level Estimated
07:05PM 38.0394 59.1578 308° West  Level Estimated
07:06PM 38.1154 59.0346 308° West  Level Estimated
07:07PM 38.1914 58.9112 308° West  Level Estimated
07:08PM 38.2672 58.7875 308° West  Level Estimated
07:09PM 38.3428 58.6636 308° West  Level Estimated
07:10PM 38.4184 58.5394 308° West  Level Estimated
07:11PM 38.4938 58.4149 308° West  Level Estimated
07:12PM 38.5691 58.2902 308° West  Level Estimated
07:13PM 38.6442 58.1652 308° West  Level Estimated
07:14PM 38.7192 58.0400 308° West  Level Estimated
07:15PM 38.7941 57.9145 307° West  Level Estimated
07:16PM 38.8688 57.7887 307° West  Level Estimated
07:17PM 38.9435 57.6627 307° West  Level Estimated
07:18PM 39.0179 57.5364 307° West  Level Estimated
07:19PM 39.0923 57.4098 307° West  Level Estimated
07:20PM 39.1665 57.2830 307° West  Level Estimated
07:21PM 39.2405 57.1559 307° West  Level Estimated
07:22PM 39.3144 57.0285 307° West  Level Estimated
07:23PM 39.3882 56.9009 307° West  Level Estimated
07:24PM 39.4618 56.7730 307° West  Level Estimated
07:25PM 39.5354 56.6448 307° West  Level Estimated
07:26PM 39.6087 56.5163 307° West  Level Estimated
07:27PM 39.6819 56.3876 306° West  Level Estimated
07:28PM 39.7550 56.2586 306° West  Level Estimated
07:29PM 39.8279 56.1294 306° West  Level Estimated
07:30PM 39.9007 55.9998 306° West  Level Estimated
07:31PM 39.9734 55.8700 306° West  Level Estimated
07:32PM 40.0459 55.7399 306° West  Level Estimated
07:33PM 40.1182 55.6096 306° West  Level Estimated
07:34PM 40.1904 55.4789 306° West  Level Estimated
07:35PM 40.2625 55.3480 306° West  Level Estimated
07:36PM 40.3344 55.2168 306° West  Level Estimated
07:37PM 40.4062 55.0853 306° West  Level Estimated
07:38PM 40.4778 54.9535 306° West  Level Estimated
07:39PM 40.5493 54.8215 305° West  Level Estimated
07:40PM 40.6206 54.6892 305° West  Level Estimated
07:41PM 40.6917 54.5566 305° West  Level Estimated
07:42PM 40.7627 54.4237 305° West  Level Estimated
07:43PM 40.8336 54.2905 305° West  Level Estimated
07:44PM 40.9043 54.1570 305° West  Level Estimated
07:45PM 40.9749 54.0233 305° West  Level Estimated
07:46PM 41.0453 53.8893 305° West  Level Estimated
07:47PM 41.1155 53.7549 305° West  Level Estimated
07:48PM 41.1856 53.6203 305° West  Level Estimated
07:49PM 41.2555 53.4854 305° West  Level Estimated
07:50PM 41.3253 53.3503 305° West  Level Estimated
07:51PM 41.3949 53.2148 304° West  Level Estimated
07:52PM 41.4643 53.0790 304° West  Level Estimated
07:53PM 41.5336 52.9430 304° West  Level Estimated
07:54PM 41.6028 52.8066 304° West  Level Estimated
07:55PM 41.6717 52.6700 304° West  Level Estimated
07:56PM 41.7405 52.5331 304° West  Level Estimated
07:57PM 41.8092 52.3958 304° West  Level Estimated
07:58PM 41.8777 52.2583 304° West  Level Estimated
07:59PM 41.9460 52.1205 304° West  Level Estimated
08:00PM 42.0141 51.9824 304° West  Level Estimated
08:01PM 42.0821 51.8440 304° West  Level Estimated
08:02PM 42.1499 51.7053 303° West  Level Estimated
08:03PM 42.2176 51.5663 303° West  Level Estimated
08:04PM 42.2851 51.4270 303° West  Level Estimated
08:05PM 42.3524 51.2874 303° West  Level Estimated
08:06PM 42.4195 51.1475 303° West  Level Estimated
08:07PM 42.4865 51.0073 303° West  Level Estimated
08:08PM 42.5533 50.8669 303° West  Level Estimated
08:09PM 42.6199 50.7261 303° West  Level Estimated
08:10PM 42.6864 50.5850 303° West  Level Estimated
08:11PM 42.7527 50.4436 303° West  Level Estimated
08:12PM 42.8188 50.3019 302° West  Level Estimated
08:12PM 44.1540 50.5760 302° West 450 518 38,000  Level FlightAware
08:13PM 42.8847 50.1599 302° West  Level Estimated
08:13PM 44.2050 50.4840 308° West 452 520 38,000  Level FlightAware
08:14PM 44.2610 50.3820 307° West 452 520 38,000  Level FlightAware
08:15PM 44.3130 50.2870 307° West 450 518 38,000  Level FlightAware
08:15PM 44.3510 50.2190 308° West 450 518 38,000  Level FlightAware
08:16PM 44.4060 50.1180 307° West 448 516 38,000  Level FlightAware
08:16PM 44.4580 50.0230 308° West 448 516 38,000  Level FlightAware
08:17PM 44.5080 49.9300 307° West 448 516 38,000  Level FlightAware
08:18PM 44.5640 49.8270 307° West 451 519 38,000  Level FlightAware
08:19PM 44.6150 49.7330 307° West 449 517 38,000  Level FlightAware
08:19PM 44.6690 49.6330 307° West 450 518 38,000  Level FlightAware
08:20PM 44.7210 49.5350 307° West 452 520 38,000  Level FlightAware
08:21PM 44.7860 49.4120 307° West 452 520 38,000 180 Level FlightAware
08:22PM 44.8440 49.2950 305° West 460 529 38,300 600 Climbing FlightAware
08:22PM 44.8900 49.2030 305° West 457 526 38,900 660 Climbing FlightAware
08:23PM 44.9410 49.1020 306° West 460 529 39,200 420 Climbing FlightAware
08:24PM 44.9890 49.0050 305° West 464 534 39,500 300 Climbing FlightAware
08:24PM 45.0460 48.8910 305° West 467 537 39,700 300 Climbing FlightAware
08:25PM 45.1020 48.7780 305° West 463 533 40,000 180 Climbing FlightAware
08:26PM 45.1510 48.6780 305° West 465 535 40,000  Level FlightAware
08:26PM 45.1940 48.5910 305° West 466 536 40,000  Level FlightAware
08:27PM 45.2560 48.4650 305° West 467 537 40,000  Level FlightAware
08:28PM 45.3050 48.3650 305° West 468 539 40,000  Level FlightAware
08:29PM 45.3540 48.2640 305° West 468 539 40,000  Level FlightAware
08:29PM 45.4050 48.1600 305° West 469 540 40,000  Level FlightAware
08:30PM 45.4540 48.0580 304° West 466 536 40,000  Level FlightAware
08:31PM 45.5020 47.9580 304° West 466 536 40,000  Level FlightAware
08:31PM 45.5590 47.8390 304° West 467 537 40,000  Level FlightAware
08:32PM 45.6000 47.7540 305° West 467 537 40,000  Level FlightAware
08:33PM 45.6780 47.5890 304° West 461 531 40,000  Level FlightAware
08:34PM 45.7260 47.4890 305° West 460 529 40,000  Level FlightAware
08:34PM 45.7820 47.3700 304° West 460 529 40,000  Level FlightAware
08:35PM 45.8480 47.2290 304° West 461 531 40,000  Level FlightAware
08:36PM 45.8960 47.1270 304° West 462 532 40,000  Level FlightAware
08:37PM 45.9330 47.0430 302° West 463 533 40,000  Level FlightAware
08:38PM 45.9860 46.8740 294° West 465 535 40,000  Level FlightAware
08:39PM 46.0380 46.7140 295° West 467 537 40,000  Level FlightAware
08:40PM 46.0300 46.7380 116° Southeast 467 537 40,000  Level FlightAware
08:41PM 46.1520 46.3560 295° West 466 536 40,000  Level FlightAware
08:42PM 46.2260 46.1230 295° West 465 535 40,000  Level FlightAware
08:43PM 46.2600 46.0110 294° West 465 535 40,000  Level FlightAware
08:43PM 46.2960 45.8950 294° West 465 535 40,000  Level FlightAware
08:44PM 46.2810 45.9430 114° Southeast 465 535 40,000  Level FlightAware
08:45PM 46.3180 45.8220 294° West 465 535 40,000  Level FlightAware
08:46PM 46.2880 45.9180 114° Southeast 465 535 40,000  Level FlightAware
08:46PM 46.3160 45.8210 293° West 465 535 40,000  Level FlightAware
08:47PM 46.2600 46.0110 113° Southeast 466 536 40,000  Level FlightAware
08:48PM 46.2930 45.8930 292° West 466 536 40,000  Level FlightAware
08:48PM 46.5430 45.0630 294° West 466 536 40,000  Level FlightAware
08:50PM 46.6170 44.8050 293° West 464 534 40,000  Level FlightAware
08:51PM 46.6590 44.6610 293° West 463 533 40,000  Level FlightAware
08:51PM 46.6910 44.5450 292° West 465 535 40,000  Level FlightAware
08:52PM 46.7300 44.4070 292° West 464 534 40,000  Level FlightAware
08:53PM 46.7640 44.2830 292° West 462 532 40,000  Level FlightAware
08:54PM 46.8040 44.1420 293° West 461 531 40,000  Level FlightAware
08:54PM 46.8390 44.0130 292° West 463 533 40,000  Level FlightAware
08:55PM 46.8700 43.9010 292° West 462 532 40,000  Level FlightAware
08:56PM 46.9010 43.7860 292° West 463 533 40,000  Level FlightAware
08:56PM 46.9380 43.6500 292° West 463 533 40,000  Level FlightAware
08:57PM 46.9690 43.5350 292° West 465 535 40,000  Level FlightAware
08:58PM 47.0080 43.3870 291° West 465 535 40,000  Level FlightAware
08:59PM 47.0350 43.2870 292° West 465 535 40,000  Level FlightAware
08:59PM 47.0610 43.1870 291° West 465 535 40,000  Level FlightAware
09:00PM 47.0870 43.0870 291° West 465 535 40,000  Level FlightAware
09:01PM 47.1200 42.9610 291° West 465 535 40,000  Level FlightAware
09:01PM 47.1460 42.8610 291° West 465 535 40,000  Level FlightAware
09:02PM 47.1720 42.7600 291° West 465 535 40,000  Level FlightAware
09:04PM 47.3220 42.3310 297° West 40,000  Level FlightAware
09:05PM 47.3710 42.1340 290° West 476 548 40,000  Level FlightAware
09:06PM 47.3960 42.0330 290° West 476 548 40,000  Level FlightAware
09:07PM 47.4280 41.9030 290° West 476 548 40,000  Level FlightAware
09:07PM 47.4530 41.7990 290° West 476 548 40,000  Level FlightAware
09:08PM 47.5040 41.6030 291° West 474 545 40,000  Level FlightAware
09:09PM 47.5280 41.5070 290° West 474 545 40,000  Level FlightAware
09:09PM 47.5590 41.3770 290° West 474 545 40,000  Level FlightAware
09:10PM 47.5850 41.2730 290° West 474 545 40,000  Level FlightAware
09:11PM 47.6100 41.1700 290° West 474 545 40,000  Level FlightAware
09:11PM 47.6360 41.0660 290° West 474 545 40,000  Level FlightAware
09:12PM 47.7000 40.8600 295° West 472 543 40,000  Level FlightAware
09:13PM 47.7440 40.7120 294° West 472 543 40,000  Level FlightAware
09:14PM 47.7800 40.5890 294° West 473 544 40,000  Level FlightAware
09:14PM 47.8090 40.4910 294° West 473 544 40,000  Level FlightAware
09:15PM 47.8440 40.3690 293° West 474 545 40,000  Level FlightAware
09:16PM 47.8780 40.2510 293° West 474 545 40,000  Level FlightAware
09:16PM 47.9070 40.1490 293° West 474 545 40,000  Level FlightAware
09:17PM 47.9360 40.0460 293° West 474 545 40,000  Level FlightAware
09:19PM 48.0160 39.6940 289° West 469 540 40,000  Level FlightAware
09:19PM 48.0500 39.5710 293° West 470 541 40,000  Level FlightAware
09:20PM 48.0850 39.4310 291° West 470 541 40,000  Level FlightAware
09:21PM 48.1190 39.2870 290° West 471 542 40,000  Level FlightAware
09:22PM 48.1500 39.1580 290° West 472 543 40,000  Level FlightAware
09:22PM 48.1690 39.0800 290° West 473 544 40,000  Level FlightAware
09:23PM 48.2000 38.9490 290° West 472 543 40,000  Level FlightAware
09:23PM 48.2270 38.8350 290° West 470 541 40,000  Level FlightAware
09:24PM 48.2590 38.6980 289° West 471 542 40,000  Level FlightAware
09:25PM 48.2830 38.5950 289° West 472 543 40,000  Level FlightAware
09:25PM 48.3210 38.4320 289° West 473 544 40,000  Level FlightAware
09:26PM 48.3500 38.3060 289° West 472 543 40,000  Level FlightAware
09:27PM 48.3820 38.1680 289° West 473 544 40,000  Level FlightAware
09:28PM 48.4110 38.0390 289° West 474 545 40,000  Level FlightAware
09:28PM 48.4430 37.8980 289° West 475 547 40,000  Level FlightAware
09:29PM 48.4690 37.7830 289° West 474 545 40,000  Level FlightAware
09:30PM 48.4980 37.6540 289° West 473 544 40,000  Level FlightAware
09:30PM 48.5260 37.5270 288° West 473 544 40,000  Level FlightAware
09:31PM 48.5600 37.3720 288° West 475 547 40,000  Level FlightAware
09:32PM 48.5860 37.2560 289° West 476 548 40,000  Level FlightAware
09:33PM 48.6190 37.1030 288° West 478 550 40,000  Level FlightAware
09:33PM 48.6500 36.9620 288° West 479 551 40,000  Level FlightAware
09:34PM 48.6810 36.8170 288° West 480 552 40,000  Level FlightAware
09:34PM 48.7010 36.7230 288° West 480 552 40,000  Level FlightAware
09:35PM 48.7340 36.5690 288° West 482 555 40,000  Level FlightAware
09:36PM 48.7650 36.4190 287° West 482 555 40,000  Level FlightAware
09:37PM 48.7930 36.2850 288° West 485 558 40,000  Level FlightAware
09:37PM 48.8220 36.1480 288° West 486 559 40,000  Level FlightAware
09:38PM 48.8500 36.0130 288° West 484 557 40,000  Level FlightAware
09:39PM 48.8700 35.9140 287° West 484 557 40,000  Level FlightAware
09:39PM 48.9010 35.7610 287° West 484 557 40,000  Level FlightAware
09:40PM 48.9280 35.6270 287° West 484 557 40,000  Level FlightAware
09:41PM 48.9620 35.4580 287° West 484 557 40,000  Level FlightAware
09:42PM 48.9870 35.3330 287° West 485 558 40,000  Level FlightAware
09:42PM 49.0140 35.2000 287° West 488 562 40,000  Level FlightAware
09:43PM 49.0390 35.0700 286° West 488 562 40,000  Level FlightAware
09:44PM 49.0620 34.9520 287° West 489 563 40,000  Level FlightAware
09:44PM 49.0920 34.7960 286° West 490 564 40,000  Level FlightAware
09:45PM 49.1230 34.6370 287° West 488 562 40,000  Level FlightAware
09:46PM 49.1450 34.5250 287° West 488 562 40,000  Level FlightAware
09:47PM 49.1740 34.3690 286° West 487 560 40,000  Level FlightAware
09:47PM 49.1960 34.2520 286° West 487 560 40,000  Level FlightAware
09:48PM 49.2290 34.0770 286° West 486 559 40,000  Level FlightAware
09:49PM 49.2500 33.9600 285° West 485 558 40,000 -120 Level FlightAware
09:49PM 49.2720 33.8430 286° West 485 558 39,900  Descending FlightAware
09:50PM 49.3040 33.6670 286° West 489 563 40,000 60 Climbing FlightAware
09:51PM 49.3280 33.5510 288° West 490 564 40,000  Level FlightAware
09:51PM 49.3660 33.3840 289° West 489 563 40,000  Level FlightAware
09:52PM 49.3880 33.2850 289° West 488 562 40,000  Level FlightAware
09:53PM 49.4230 33.1270 289° West 490 564 40,000  Level FlightAware
09:53PM 49.4520 32.9950 289° West 492 566 40,000  Level FlightAware
09:54PM 49.4810 32.8630 289° West 493 567 40,000  Level FlightAware
09:55PM 49.5150 32.7060 289° West 493 567 40,000  Level FlightAware
09:55PM 49.5410 32.5880 289° West 493 567 40,000  Level FlightAware
09:56PM 49.5750 32.4310 289° West 493 567 40,000  Level FlightAware
09:57PM 49.6100 32.2740 289° West 493 567 40,000  Level FlightAware
09:58PM 49.6350 32.1560 288° West 493 567 40,000  Level FlightAware
09:58PM 49.6700 31.9980 289° West 493 567 40,000  Level FlightAware
09:59PM 49.6950 31.8790 288° West 495 570 40,000  Level FlightAware
10:00PM 49.7280 31.7200 288° West 497 572 40,000  Level FlightAware
10:00PM 49.7530 31.6000 288° West 497 572 40,000  Level FlightAware
10:01PM 49.7850 31.4400 287° West 497 572 40,000  Level FlightAware
10:02PM 49.8100 31.3200 288° West 497 572 40,000  Level FlightAware
10:03PM 49.8430 31.1600 288° West 497 572 40,000  Level FlightAware
10:03PM 49.8760 31.0000 288° West 497 572 40,000  Level FlightAware
10:05PM 49.9310 30.6680 285° West 498 573 40,000  Level FlightAware
10:06PM 49.9530 30.5290 284° West 497 572 40,000  Level FlightAware
10:06PM 49.9790 30.3750 285° West 497 572 40,000  Level FlightAware
10:07PM 50.0010 30.2420 284° West 497 572 40,000  Level FlightAware
10:08PM 50.0280 30.0810 285° West 497 572 40,000  Level FlightAware
10:08PM 50.0500 29.9440 284° West 495 570 40,000  Level FlightAware
10:09PM 50.0720 29.8080 284° West 494 568 40,000  Level FlightAware
10:10PM 50.0970 29.6500 284° West 493 567 40,000  Level FlightAware
10:11PM 50.1190 29.5140 284° West 494 568 40,000  Level FlightAware
10:11PM 50.1400 29.3750 283° West 494 568 40,000  Level FlightAware
10:12PM 50.1640 29.2210 284° West 492 566 40,000  Level FlightAware
10:13PM 50.1860 29.0790 284° West 492 566 40,000  Level FlightAware
10:13PM 50.2100 28.9250 284° West 492 566 40,000  Level FlightAware
10:14PM 50.2300 28.7880 283° West 491 565 40,000  Level FlightAware
10:15PM 50.2500 28.6560 283° West 492 566 40,000  Level FlightAware
10:16PM 50.2790 28.4600 283° West 493 567 40,000  Level FlightAware
10:16PM 50.2990 28.3260 283° West 493 567 40,000  Level FlightAware
10:17PM 50.3220 28.1710 283° West 492 566 40,000  Level FlightAware
10:18PM 50.3400 28.0370 282° West 492 566 40,000  Level FlightAware
10:19PM 50.3690 27.8420 283° West 492 566 40,000  Level FlightAware
10:19PM 50.3920 27.6780 282° West 494 568 40,000  Level FlightAware
10:20PM 50.4130 27.5240 282° West 492 566 40,000  Level FlightAware
10:21PM 50.4350 27.3720 283° West 491 565 40,000  Level FlightAware
10:23PM 50.4880 26.9760 282° West 492 566 40,000  Level FlightAware
10:24PM 50.5110 26.8060 282° West 493 567 40,000  Level FlightAware
10:26PM 50.5655 26.4544 284° West  Level Estimated
10:26PM 50.5690 26.3600 284° West 494 568 40,000  Level FlightAware
10:27PM 50.5910 26.1840 281° West 494 568 40,000  Level FlightAware
10:27PM 50.6100 26.0290 281° West 497 572 40,000  Level FlightAware
10:28PM 50.6360 25.8260 281° West 494 568 40,000  Level FlightAware
10:29PM 50.6520 25.6910 281° West 493 567 40,000  Level FlightAware
10:30PM 50.6730 25.5210 281° West 495 570 40,000  Level FlightAware
10:30PM 50.6850 25.4230 281° West 497 572 40,000  Level FlightAware
10:31PM 50.7040 25.2560 280° West 498 573 40,000  Level FlightAware
10:32PM 50.7230 25.0940 281° West 498 573 40,000  Level FlightAware
10:32PM 50.7410 24.9430 281° West 498 573 40,000  Level FlightAware
10:33PM 50.7590 24.7820 280° West 496 571 40,000  Level FlightAware
10:34PM 50.7750 24.6380 280° West 495 570 40,000  Level FlightAware
10:35PM 50.7910 24.4960 280° West 492 566 40,000  Level FlightAware
10:35PM 50.8080 24.3380 280° West 489 563 40,000  Level FlightAware
10:36PM 50.8230 24.2080 280° West 487 560 40,000  Level FlightAware
10:37PM 50.8450 24.0410 282° West 481 554 40,000  Level FlightAware
10:37PM 50.8640 23.9360 286° West 485 558 40,000  Level FlightAware
10:38PM 50.9010 23.7170 285° West 484 557 40,000  Level FlightAware
10:39PM 50.9280 23.5590 285° West 484 557 40,000  Level FlightAware
10:40PM 50.9500 23.4290 285° West 482 555 40,000  Level FlightAware
10:40PM 50.9740 23.2900 285° West 481 554 40,000  Level FlightAware
10:41PM 50.9980 23.1450 285° West 482 555 40,000  Level FlightAware
10:42PM 51.0220 22.9990 285° West 481 554 40,000  Level FlightAware
10:43PM 51.0440 22.8640 285° West 480 552 40,000  Level FlightAware
10:43PM 51.0670 22.7230 285° West 482 555 40,000  Level FlightAware
10:44PM 51.0900 22.5770 284° West 480 552 40,000  Level FlightAware
10:45PM 51.1150 22.4210 284° West 478 550 40,000  Level FlightAware
10:45PM 51.1380 22.2800 285° West 476 548 40,000  Level FlightAware
10:46PM 51.1620 22.1230 284° West 479 551 40,000  Level FlightAware
10:47PM 51.1780 22.0210 284° West 480 552 40,000  Level FlightAware
10:47PM 51.2050 21.8470 284° West 476 548 40,000  Level FlightAware
10:48PM 51.2280 21.6960 284° West 481 554 40,000  Level FlightAware
10:49PM 51.2480 21.5640 284° West 488 562 40,000  Level FlightAware
10:50PM 51.2720 21.4030 283° West 487 560 40,000  Level FlightAware
10:50PM 51.2930 21.2600 283° West 481 554 40,000  Level FlightAware
10:51PM 51.3140 21.1190 283° West 478 550 40,000  Level FlightAware
10:51PM 51.3290 21.0170 283° West 472 543 40,000  Level FlightAware
10:52PM 51.3510 20.8670 283° West 467 537 40,000  Level FlightAware
10:53PM 51.3700 20.7320 283° West 458 527 40,000  Level FlightAware
10:54PM 51.3900 20.5910 283° West 455 524 40,000  Level FlightAware
10:54PM 51.4080 20.4660 283° West 455 524 40,000  Level FlightAware
10:55PM 51.4280 20.3220 283° West 453 521 40,000  Level FlightAware
10:56PM 51.4490 20.1720 283° West 455 524 40,000  Level FlightAware
10:56PM 51.4660 20.0430 282° West 459 528 40,000  Level FlightAware
10:57PM 51.4850 19.8910 281° West 466 536 40,000  Level FlightAware
10:58PM 51.4960 19.7590 278° West 467 537 40,000  Level FlightAware
10:58PM 51.5080 19.6230 278° West 462 532 40,000  Level FlightAware
10:59PM 51.5220 19.4650 278° West 457 526 40,000  Level FlightAware
11:00PM 51.5330 19.3410 278° West 452 520 40,000  Level FlightAware
11:01PM 51.5470 19.1810 278° West 451 519 40,000  Level FlightAware
11:01PM 51.5590 19.0490 278° West 450 518 40,000  Level FlightAware
11:02PM 51.5700 18.9180 278° West 449 517 40,000  Level FlightAware
11:03PM 51.5820 18.7730 278° West 449 517 40,000  Level FlightAware
11:03PM 51.5930 18.6410 278° West 448 516 40,000  Level FlightAware
11:04PM 51.6040 18.5100 278° West 447 514 40,000  Level FlightAware
11:05PM 51.6160 18.3580 277° West 446 513 40,000  Level FlightAware
11:05PM 51.6260 18.2260 277° West 448 516 40,000  Level FlightAware
11:06PM 51.6380 18.0810 278° West 448 516 40,000  Level FlightAware
11:07PM 51.6480 17.9500 277° West 446 513 40,000  Level FlightAware
11:07PM 51.6580 17.8170 277° West 448 516 40,000  Level FlightAware
11:08PM 51.6690 17.6650 277° West 449 517 40,000  Level FlightAware
11:09PM 51.6790 17.5330 277° West 447 514 40,000  Level FlightAware
11:10PM 51.6890 17.3870 276° West 445 512 40,000  Level FlightAware
11:10PM 51.6990 17.2510 277° West 444 511 40,000  Level FlightAware
11:11PM 51.7090 17.1100 277° West 442 509 40,000  Level FlightAware
11:12PM 51.7170 16.9800 276° West 439 505 40,000  Level FlightAware
11:12PM 51.7260 16.8510 276° West 440 506 40,000  Level FlightAware
11:13PM 51.7350 16.7190 276° West 442 509 40,000  Level FlightAware
11:14PM 51.7450 16.5670 276° West 443 510 40,000  Level FlightAware
11:15PM 51.7540 16.4250 276° West 444 511 40,000  Level FlightAware
11:15PM 51.7620 16.2970 276° West 445 512 40,000  Level FlightAware
11:16PM 51.7700 16.1570 275° West 443 510 40,000  Level FlightAware
11:17PM 51.7790 16.0190 276° West 442 509 40,000  Level FlightAware
11:17PM 51.7860 15.8910 275° West 440 506 40,000  Level FlightAware
11:18PM 51.7940 15.7560 276° West 440 506 40,000  Level FlightAware
11:19PM 51.8020 15.6070 275° West 441 507 40,000  Level FlightAware
11:19PM 51.8100 15.4760 276° West 441 507 40,000  Level FlightAware
11:20PM 51.8170 15.3290 274° West 440 506 40,000  Level FlightAware
11:21PM 51.8250 15.1950 276° West 439 505 40,000  Level FlightAware
11:22PM 51.8320 15.0520 275° West 440 506 40,000  Level FlightAware
11:22PM 51.8390 14.9200 275° West 441 507 40,000  Level FlightAware
11:23PM 51.8450 14.7810 274° West 443 510 40,000  Level FlightAware
11:24PM 51.8520 14.6550 275° West 442 509 40,000  Level FlightAware
11:24PM 51.8590 14.5030 274° West 440 506 40,000  Level FlightAware
11:25PM 51.8650 14.3560 274° West 440 506 40,000  Level FlightAware
11:26PM 51.8710 14.2240 274° West 441 507 40,000  Level FlightAware
11:26PM 51.8770 14.0930 274° West 442 509 40,000  Level FlightAware
11:27PM 51.8830 13.9470 274° West 443 510 40,000  Level FlightAware
11:28PM 51.8880 13.8220 274° West 440 506 40,000  Level FlightAware
11:28PM 51.8940 13.6830 274° West 440 506 40,000  Level FlightAware
11:29PM 51.8990 13.5380 273° West 438 504 40,000  Level FlightAware
11:30PM 51.9040 13.4080 274° West 436 502 40,000  Level FlightAware
11:31PM 51.9100 13.2560 274° West 438 504 40,000  Level FlightAware
11:31PM 51.9140 13.1320 273° West 438 504 40,000  Level FlightAware
11:32PM 51.9190 12.9810 273° West 438 504 40,000  Level FlightAware
11:33PM 51.9230 12.8510 273° West 439 505 40,000  Level FlightAware
11:33PM 51.9270 12.7440 274° West 440 506 40,000  Level FlightAware
11:34PM 51.9320 12.5770 273° West 441 507 40,000  Level FlightAware
11:35PM 51.9360 12.4420 273° West 440 506 40,000  Level FlightAware
11:35PM 51.9390 12.3120 272° West 439 505 40,000  Level FlightAware
11:36PM 51.9440 12.1620 273° West 438 504 40,000  Level FlightAware
11:37PM 51.9460 12.0560 272° West 439 505 40,000  Level FlightAware
11:38PM 51.9500 11.9060 273° West 440 506 40,000  Level FlightAware
11:38PM 51.9540 11.7520 272° West 439 505 40,000  Level FlightAware
11:39PM 51.9560 11.6240 272° West 438 504 40,000  Level FlightAware
11:40PM 51.9590 11.4820 272° West 437 503 40,000  Level FlightAware
11:40PM 51.9620 11.3460 272° West 438 504 40,000  Level FlightAware
11:41PM 51.9650 11.2010 272° West 439 505 40,000  Level FlightAware
11:42PM 51.9670 11.0690 271° West 440 506 40,000  Level FlightAware
11:42PM 51.9690 10.9360 271° West 442 509 40,000  Level FlightAware
11:43PM 51.9720 10.7890 272° West 438 504 40,000  Level FlightAware
11:44PM 51.9730 10.6570 271° West 436 502 40,000  Level FlightAware
11:45PM 51.9750 10.5120 271° West 436 502 40,000  Level FlightAware
11:45PM 51.9770 10.3810 271° West 437 503 40,000  Level FlightAware
11:46PM 51.9780 10.2500 271° West 437 503 40,000  Level FlightAware
11:47PM 51.9790 10.1060 271° West 438 504 40,000  Level FlightAware
11:47PM 51.9810 9.9730 271° West 436 502 40,000  Level FlightAware
11:48PM 51.9810 9.8430 270° West 436 502 40,000  Level FlightAware
11:49PM 51.9820 9.6960 271° West 437 503 40,000  Level FlightAware
11:49PM 51.9830 9.5660 271° West 439 505 40,000  Level FlightAware
11:50PM 51.9840 9.4180 271° West 439 505 40,000  Level FlightAware
11:51PM 51.9840 9.2860 270° West 439 505 40,000  Level FlightAware
11:51PM 51.9840 9.1710 270° West 441 507 40,000  Level FlightAware
11:52PM 51.9840 9.0080 270° West 439 505 40,000  Level FlightAware
11:53PM 51.9840 8.8820 270° West 440 506 40,000  Level FlightAware
11:54PM 51.9840 8.7330 270° West 439 505 40,000  Level FlightAware
11:54PM 51.9830 8.6030 269° West 437 503 40,000  Level FlightAware
11:55PM 51.9830 8.4730 270° West 438 504 40,000  Level FlightAware
11:56PM 51.9820 8.3240 269° West 440 506 40,000  Level FlightAware
11:56PM 51.9810 8.1920 269° West 439 505 40,000  Level FlightAware
11:57PM 51.9800 8.0610 269° West 437 503 40,000  Level FlightAware
11:58PM 51.9780 7.8990 269° West 436 502 40,000  Level FlightAware
11:59PM 51.9770 7.7490 269° West 437 503 40,000  Level FlightAware
12:00AM 51.9750 7.5980 269° West 438 504 40,000  Level FlightAware
12:00AM 51.9730 7.4590 269° West 437 503 40,000  Level FlightAware
12:01AM 51.9710 7.3300 269° West 434 499 40,000  Level FlightAware
12:02AM 51.9690 7.1880 269° West 434 499 40,000  Level FlightAware
12:02AM 51.9670 7.0480 269° West 435 501 40,000  Level FlightAware
12:03AM 51.9640 6.9040 268° West 434 499 40,000  Level FlightAware
12:04AM 51.9620 6.7770 269° West 431 496 40,000  Level FlightAware
12:04AM 51.9590 6.6490 268° West 429 494 40,000  Level FlightAware
12:05AM 51.9560 6.5060 268° West 428 493 40,000  Level FlightAware
12:06AM 51.9530 6.3710 268° West 430 495 40,000  Level FlightAware
12:07AM 51.9500 6.2220 268° West 432 497 40,000  Level FlightAware
12:07AM 51.9470 6.0920 268° West 431 496 40,000  Level FlightAware
12:08AM 51.9430 5.9630 267° West 429 494 40,000  Level FlightAware
12:09AM 51.9400 5.8230 268° West 426 490 40,000 -1,080 Level FlightAware
12:09AM 51.9373 5.6920 268° West 1 1 38,500  Descending FlightAware UK
12:09AM 51.9360 5.6970 268° West 426 490 40,000  Climbing FlightAware
12:10AM 51.9336 5.6330 268° West 476 548 38,500 -2,580 Descending FlightAware UK
12:10AM 51.9309 5.5756 266° West 478 550 38,500 3,900 Level FlightAware UK
12:10AM 51.9320 5.5650 266° West 426 490 40,000  Climbing FlightAware
12:10AM 51.9318 5.5015 266° West 478 550 38,500 -2,460 Descending FlightAware UK
12:11AM 51.9282 5.4428 264° West 480 552 38,500 3,420 Level FlightAware UK
12:11AM 51.9280 5.4250 264° West 427 491 40,000  Climbing FlightAware
12:11AM 51.9259 5.3663 264° West 476 548 38,500 -2,700 Descending FlightAware UK
12:11AM 51.9246 5.3091 268° West 480 552 38,500 3,720 Level FlightAware UK
12:11AM 51.9240 5.2970 268° West 427 491 40,000  Climbing FlightAware
12:12AM 51.9209 5.2317 268° West 480 552 38,500 -2,520 Descending FlightAware UK
12:12AM 51.9194 5.1747 268° West 478 550 38,500 3,300 Level FlightAware UK
12:12AM 51.9190 5.1550 268° West 426 490 40,000  Climbing FlightAware
12:12AM 51.9176 5.0989 268° West 482 555 38,500 -2,760 Descending FlightAware UK
12:13AM 51.9157 5.0416 267° West 482 555 38,500 3,600 Level FlightAware UK
12:13AM 51.9150 5.0230 267° West 424 488 40,000  Climbing FlightAware
12:13AM 51.9225 4.9369 267° West 476 548 38,500  Descending FlightAware UK
12:13AM 51.9100 4.8990 267° West 422 486 40,000  Climbing FlightAware
12:14AM 51.9134 4.8388 267° West 478 550 38,500 -2,460 Descending FlightAware UK
12:14AM 51.9096 4.7810 264° West 480 552 38,500 3,420 Level FlightAware UK
12:14AM 51.9050 4.7600 264° West 423 487 40,000  Climbing FlightAware
12:14AM 51.9040 4.7031 264° West 480 552 38,500 -2,700 Descending FlightAware UK
12:15AM 51.9020 4.6463 267° West 478 550 38,500 3,720 Level FlightAware UK
12:15AM 51.9010 4.6330 267° West 423 487 40,000  Climbing FlightAware
12:15AM 51.9006 4.5713 267° West 478 550 38,500 -2,520 Descending FlightAware UK
12:15AM 51.8976 4.5136 265° West 478 550 38,500 3,300 Level FlightAware UK
12:16AM 51.8950 4.4940 265° West 423 487 40,000  Climbing FlightAware
12:16AM 51.8928 4.4368 265° West 478 550 38,500 -2,760 Descending FlightAware UK
12:16AM 51.8912 4.3801 268° West 478 550 38,500 3,600 Level FlightAware UK
12:16AM 51.8900 4.3690 268° West 423 487 40,000  Climbing FlightAware
12:17AM 51.8889 4.3044 268° West 476 548 38,500 -2,580 Descending FlightAware UK
12:17AM 51.8859 4.2475 265° West 474 545 38,500 3,900 Level FlightAware UK
12:17AM 51.8850 4.2400 265° West 425 489 40,000  Climbing FlightAware
12:17AM 51.8828 4.1715 265° West 476 548 38,500 -2,460 Descending FlightAware UK
12:18AM 51.8801 4.1149 266° West 478 550 38,500 3,420 Level FlightAware UK
12:18AM 51.8790 4.0950 266° West 428 493 40,000  Climbing FlightAware
12:18AM 51.8770 4.0383 266° West 480 552 38,500 -2,700 Descending FlightAware UK
12:18AM 51.8748 3.9808 266° West 480 552 38,500 3,060 Level FlightAware UK
12:18AM 51.8730 3.9550 266° West 430 495 40,000  Climbing FlightAware
12:19AM 51.8699 3.8845 266° West 480 552 38,500  Descending FlightAware UK
12:19AM 51.8680 3.8380 266° West 429 494 40,000  Climbing FlightAware
12:19AM 51.8675 3.8269 266° West 482 555 38,500 -4,500 Descending FlightAware UK
12:19AM 51.8651 3.7695 266° West 478 550 38,500  Level FlightAware UK
12:20AM 51.8625 3.7129 266° West 476 548 38,500 3,600 Level FlightAware UK
12:20AM 51.8620 3.7000 266° West 425 489 40,000  Climbing FlightAware
12:20AM 51.8588 3.6368 266° West 478 550 38,500 -2,700 Descending FlightAware UK
12:20AM 51.8561 3.5798 266° West 478 550 38,500 3,060 Level FlightAware UK
12:21AM 51.8550 3.5580 266° West 426 490 40,000  Climbing FlightAware
12:21AM 51.8518 3.4855 266° West 476 548 38,500 -2,460 Descending FlightAware UK
12:21AM 51.8490 3.4285 265° West 480 552 38,500 4,260 Level FlightAware UK
12:21AM 51.8490 3.4280 265° West 426 490 40,000  Climbing FlightAware
12:21AM 51.8463 3.3715 265° West 482 555 38,500 -2,760 Descending FlightAware UK
12:22AM 51.8434 3.3144 265° West 480 552 38,500 2,700 Level FlightAware UK
12:22AM 51.8422 3.2877 265° West 40,000 6,000 Climbing FlightAware ADS-B
12:22AM 51.8412 3.2684 265° West 423 487 40,000 -4,320 Level FlightAware ADS-B
12:22AM 51.8387 3.2197 265° West 480 552 38,500 -2,760 Descending FlightAware UK
12:23AM 51.8358 3.1631 265° West 478 550 38,500 4,080 Level FlightAware UK
12:23AM 51.8360 3.1610 265° West 421 484 40,000  Climbing FlightAware
12:23AM 51.8320 3.0887 265° West 478 550 38,500 -2,400 Descending FlightAware UK
12:23AM 51.8289 3.0319 265° West 476 548 38,500 4,500 Level FlightAware UK
12:23AM 51.8300 3.0380 265° West 422 486 40,000  Climbing FlightAware
12:24AM 51.8262 2.9770 265° West 476 548 38,500 -3,180 Descending FlightAware UK
12:24AM 51.8235 2.9207 266° West 476 548 38,200 2,460 Descending FlightAware UK
12:24AM 51.8220 2.8930 266° West 422 486 39,700 -840 Climbing FlightAware
12:24AM 51.8186 2.8259 266° West 478 550 37,800 -3,600 Descending FlightAware UK
12:25AM 51.8156 2.7695 265° West 478 550 37,500 3,420 Descending FlightAware UK
12:25AM 51.8150 2.7680 265° West 420 483 39,000 -1,020 Climbing FlightAware
12:25AM 51.8124 2.7132 265° West 478 550 37,200 -3,840 Descending FlightAware UK
12:25AM 51.8092 2.6571 265° West 480 552 36,900 1,980 Descending FlightAware UK
12:25AM 51.8080 2.6330 265° West 420 483 38,200 1,080 Climbing FlightAware
12:26AM 51.8049 2.5755 265° West 424 488 37,400 -6,000 Descending FlightAware ADS-B
12:26AM 51.8022 2.5260 265° West 480 552 35,200 -2,760 Descending FlightAware UK
12:26AM 51.7993 2.4762 265° West 424 488 36,000 -2,880 Climbing FlightAware ADS-B
12:27AM 51.7957 2.4129 265° West 484 557 33,500 -5,220 Descending FlightAware UK
12:27AM 51.7927 2.3562 265° West 484 557 32,700 2,520 Descending FlightAware UK
12:27AM 51.7930 2.3610 265° West 421 484 34,300 7,980 Climbing FlightAware
12:27AM 51.7912 2.3300 265° West 423 487 33,900 -6,840 Descending FlightAware ADS-B
12:27AM 51.7884 2.2810 265° West 474 545 31,700 -2,520 Descending FlightAware UK
12:28AM 51.7857 2.2338 265° West 421 484 32,600 -2,340 Climbing FlightAware ADS-B
12:28AM 51.7818 2.1686 265° West 476 548 30,300 -2,220 Descending FlightAware UK
12:28AM 51.7802 2.1393 265° West 416 479 31,500 -2,220 Climbing FlightAware ADS-B
12:28AM 51.7764 2.0764 265° West 470 541 29,200 -2,220 Descending FlightAware UK
12:29AM 51.7748 2.0472 265° West 407 468 30,400 -2,040 Climbing FlightAware ADS-B
12:29AM 51.7710 1.9869 265° West 458 527 28,200 -2,220 Descending FlightAware UK
12:29AM 51.7694 1.9576 265° West 399 459 29,300 -2,400 Climbing FlightAware ADS-B
12:29AM 51.7656 1.8980 265° West 454 522 27,000 -2,160 Descending FlightAware UK
12:30AM 51.7639 1.8672 265° West 392 451 28,200 -2,040 Climbing FlightAware ADS-B
12:30AM 51.7604 1.8122 265° West 444 511 26,000 -2,160 Descending FlightAware UK
12:30AM 51.7585 1.7799 265° West 387 445 27,100 -2,220 Climbing FlightAware ADS-B
12:30AM 51.7550 1.7268 265° West 438 504 24,900 -2,220 Descending FlightAware UK
12:31AM 51.7531 1.6932 265° West 385 443 26,000 -2,220 Climbing FlightAware ADS-B
12:31AM 51.7495 1.6405 265° West 440 506 23,800 -2,100 Descending FlightAware UK
12:31AM 51.7473 1.6039 265° West 378 435 24,900 -2,400 Climbing FlightAware ADS-B
12:31AM 51.7440 1.5560 265° West 430 495 22,600 -2,640 Descending FlightAware UK
12:32AM 51.7420 1.5201 265° West 377 434 23,600 -2,400 Climbing FlightAware ADS-B
12:32AM 51.7390 1.4729 265° West 426 490 21,400 -2,520 Descending FlightAware UK
12:32AM 51.7366 1.4340 265° West 373 429 22,300 -2,640 Climbing FlightAware ADS-B
12:32AM 51.7339 1.3915 265° West 420 483 20,100 -2,040 Descending FlightAware UK
12:33AM 51.7313 1.3508 265° West 364 419 21,300 -1,800 Climbing FlightAware ADS-B
12:33AM 51.7286 1.3105 265° West 408 470 19,200 -2,640 Descending FlightAware UK
12:33AM 51.7260 1.2708 265° West 359 413 20,000 -3,540 Climbing FlightAware ADS-B
12:33AM 51.7221 1.2146 265° West 416 479 17,100 -3,300 Descending FlightAware UK
12:34AM 51.7203 1.1876 265° West 367 422 18,300 -2,100 Climbing FlightAware ADS-B
12:34AM 51.7166 1.1340 265° West 412 474 16,100 -2,040 Descending FlightAware UK
12:34AM 51.7150 1.1062 265° West 356 410 17,300 -2,040 Climbing FlightAware ADS-B
12:34AM 51.7116 1.0560 265° West 406 467 15,100 -1,980 Descending FlightAware UK
12:35AM 51.7092 1.0188 265° West 347 399 16,200 -1,800 Climbing FlightAware ADS-B
12:35AM 51.7062 0.9790 265° West 402 463 14,200 -1,380 Descending FlightAware UK
12:35AM 51.7036 0.9400 265° West 334 384 15,500 -1,020 Climbing FlightAware ADS-B
12:35AM 51.7010 0.9039 265° West 382 440 13,700 -960 Descending FlightAware UK
12:36AM 51.6985 0.8648 265° West 319 367 15,000 -1,380 Climbing FlightAware ADS-B
12:36AM 51.6953 0.8197 265° West 370 426 12,900 -4,500 Descending FlightAware UK
12:36AM 51.6923 0.7781 263° West 360 414 12,300 -1,860 Descending FlightAware UK
12:37AM 51.6891 0.7367 263° West 362 417 11,800 3,120 Descending FlightAware UK
12:37AM 51.6884 0.7375 263° West 312 359 13,300 8,220 Climbing FlightAware ADS-B
12:37AM 51.6845 0.7203 250° West 311 358 12,900 -3,240 Descending FlightAware ADS-B
12:37AM 51.6805 0.7085 241° Southwest 312 359 12,600 -6,840 Descending FlightAware ADS-B
12:37AM 51.6663 0.6771 241° Southwest 362 417 10,400 -2,040 Descending FlightAware UK
12:37AM 51.6549 0.6512 241° Southwest 312 359 11,600 -1,800 Climbing FlightAware ADS-B
12:38AM 51.6408 0.6203 241° Southwest 352 405 9,500 -2,280 Descending FlightAware UK
12:38AM 51.6286 0.5935 241° Southwest 311 358 10,400 -2,220 Climbing FlightAware ADS-B
12:38AM 51.6153 0.5647 241° Southwest 350 403 8,400 -1,620 Descending FlightAware UK
12:38AM 51.6154 0.5648 241° Southwest 307 353 10,000 3,840 Climbing FlightAware ADS-B
12:38AM 51.6016 0.5347 234° Southwest 304 350 9,500 -1,980 Descending FlightAware ADS-B
12:39AM 51.5866 0.5025 233° Southwest 306 352 8,900 -2,040 Descending FlightAware ADS-B
12:39AM 51.5736 0.4743 233° Southwest 305 351 8,400 -5,040 Descending FlightAware ADS-B
12:39AM 51.5603 0.4457 233° Southwest 338 389 6,300 -1,800 Descending FlightAware UK
12:39AM 51.5569 0.4381 233° Southwest 301 346 7,800 -1,500 Climbing FlightAware ADS-B
12:40AM 51.5417 0.4010 233° Southwest 330 380 5,700 -1,680 Descending FlightAware UK
12:40AM 51.5402 0.3965 233° Southwest 295 339 7,200 4,620 Climbing FlightAware ADS-B
12:40AM 51.5300 0.3689 239° Southwest 282 325 7,100 -600 Descending FlightAware ADS-B
12:40AM 51.5199 0.3419 239° Southwest 269 310 6,900 -600 Descending FlightAware ADS-B
12:40AM 51.5103 0.3168 238° Southwest 258 297 6,800 -420 Descending FlightAware ADS-B
12:41AM 51.5011 0.2928 238° Southwest 247 284 6,700 -600 Descending FlightAware ADS-B
12:41AM 51.4922 0.2695 239° Southwest 239 275 6,500 -540 Descending FlightAware ADS-B
12:41AM 51.4871 0.2560 239° Southwest 234 269 6,500 -480 Level FlightAware ADS-B
12:41AM 51.4846 0.2484 242° Southwest 232 267 6,400 -720 Descending FlightAware ADS-B
12:41AM 51.4831 0.2424 248° West 230 265 6,400 -720 Level FlightAware ADS-B
12:41AM 51.4815 0.2340 253° West 228 262 6,300 -540 Descending FlightAware ADS-B
12:41AM 51.4802 0.2228 259° West 225 259 6,300 -480 Level FlightAware ADS-B
12:42AM 51.4795 0.2131 263° West 223 257 6,200 -720 Descending FlightAware ADS-B
12:42AM 51.4785 0.1944 265° West 218 251 6,100 -600 Descending FlightAware ADS-B
12:42AM 51.4781 0.1781 268° West 213 245 6,000 -600 Descending FlightAware ADS-B
12:42AM 51.4780 0.1612 269° West 208 239 5,900 -3,720 Descending FlightAware ADS-B
12:42AM 51.4779 0.1384 269° West 232 267 4,400  Descending FlightAware UK
12:42AM 51.4781 0.1383 269° West 201 231 5,900 6,000 Climbing FlightAware ADS-B
12:43AM 51.4782 0.1168 270° West 197 227 5,900  Level FlightAware ADS-B
12:43AM 51.4783 0.1025 271° West 195 224 5,900  Level FlightAware ADS-B
12:43AM 51.4783 0.0869 270° West 194 223 5,900  Level FlightAware ADS-B
12:43AM 51.4782 0.0652 270° West 194 223 5,900 -240 Level FlightAware ADS-B
12:43AM 51.4782 0.0468 270° West 195 224 5,800 -660 Descending FlightAware ADS-B
12:44AM 51.4782 0.0238 270° West 195 224 5,600 -780 Descending FlightAware ADS-B
12:44AM 51.4783 0.0011 270° West 193 222 5,400 -780 Descending FlightAware ADS-B
12:44AM 51.4783 -0.0209 270° West 192 221 5,200 -1,020 Descending FlightAware ADS-B
12:44AM 51.4782 -0.0429 270° West 192 221 4,900 -1,200 Descending FlightAware ADS-B
12:45AM 51.4783 -0.0648 270° West 191 220 4,600 -1,020 Descending FlightAware ADS-B
12:45AM 51.4783 -0.0866 270° West 190 219 4,400 -1,020 Descending FlightAware ADS-B
12:45AM 51.4783 -0.1076 270° West 189 217 4,100 -1,260 Descending FlightAware ADS-B
12:45AM 51.4783 -0.1199 270° West 188 216 3,900 -960 Descending FlightAware ADS-B
12:46AM 51.4782 -0.1422 270° West 186 214 3,700 -960 Descending FlightAware ADS-B
12:46AM 51.4782 -0.1636 270° West 184 212 3,400 -1,020 Descending FlightAware ADS-B
12:46AM 51.4782 -0.1842 270° West 182 209 3,200 -1,020 Descending FlightAware ADS-B
12:46AM 51.4782 -0.2058 270° West 181 208 2,900 -1,140 Descending FlightAware ADS-B
12:47AM 51.4782 -0.2267 270° West 179 206 2,600 -960 Descending FlightAware ADS-B
12:47AM 51.4781 -0.2478 270° West 174 200 2,400 -3,720 Descending FlightAware ADS-B
12:47AM 51.4781 -0.2712 270° West 194 223 500 -1,080 Descending FlightAware UK
12:48AM 51.4781 -0.2920 270° West 167 192 1,800 600 Climbing FlightAware ADS-B
12:48AM 51.4780 -0.3390 270° West 134 154 1,200 -720 Descending FlightAware
12:49AM 51.4780 -0.3660 270° West 123 142 900 -720 Descending FlightAware
12:49AM 51.4780 -0.3910 270° West 136 157 600 -780 Descending FlightAware
12:50AM 51.4780 -0.4300 270° West 136 157 100 -480 Descending FlightAware
12:50AM 51.4780 -0.4520 270° West 136 157 100  Level FlightAware
12:53AM 51.4775 -0.4614 265° West  Level Estimated
12:54AM 51.4775 -0.4614 90° East  Level Estimated
12:55AM 51.4775 -0.4614 90° East  Level Estimated
12:56AM 51.4775 -0.4614 90° East  Level Estimated
12:57AM 51.4775 -0.4614 90° East  Level Estimated
12:58AM 51.4775 -0.4614 90° East  Level Estimated